createdAt,value
2023-02-25T00:00:46.120Z,81.00
2023-02-25T00:03:12.675Z,79.95
2023-02-25T00:05:42.896Z,80.75
2023-02-25T00:08:09.498Z,81.45
2023-02-25T00:10:35.919Z,81.50
2023-02-25T00:13:17.345Z,82.36
2023-02-25T00:15:44.661Z,81.87
2023-02-25T00:18:11.022Z,81.50
2023-02-25T00:20:40.955Z,82.25
2023-02-25T00:23:08.137Z,81.58
2023-02-25T00:25:34.524Z,82.23
2023-02-25T00:28:00.929Z,82.52
2023-02-25T00:30:27.356Z,81.75
2023-02-25T00:32:53.788Z,81.89
2023-02-25T00:35:20.304Z,82.11
2023-02-25T00:37:46.744Z,82.51
2023-02-25T00:40:16.426Z,82.52
2023-02-25T00:42:42.896Z,83.24
2023-02-25T00:45:11.247Z,82.50
2023-02-25T00:47:38.337Z,83.24
2023-02-25T00:50:09.309Z,82.95
2023-02-25T00:52:37.600Z,83.62
2023-02-25T00:55:06.073Z,82.53
2023-02-25T00:57:32.945Z,82.59
2023-02-25T00:59:59.352Z,83.00
2023-02-25T01:02:25.805Z,83.53
2023-02-25T01:04:52.229Z,83.56
2023-02-25T01:07:20.876Z,82.80
2023-02-25T01:09:47.259Z,84.26
2023-02-25T01:12:14.132Z,82.95
2023-02-25T01:14:40.502Z,83.60
2023-02-25T01:17:10.058Z,83.13
2023-02-25T01:19:36.456Z,83.93
2023-02-25T01:22:02.892Z,83.96
2023-02-25T01:24:31.949Z,82.39
2023-02-25T01:27:00.641Z,82.35
2023-02-25T01:29:30.729Z,83.92
2023-02-25T01:32:00.760Z,82.91
2023-02-25T01:34:28.871Z,83.38
2023-02-25T01:36:56.241Z,83.84
2023-02-25T01:39:26.188Z,83.47
2023-02-25T01:41:54.148Z,83.46
2023-02-25T01:44:31.797Z,83.08
2023-02-25T01:46:58.834Z,83.19
2023-02-25T01:49:46.527Z,83.01
2023-02-25T01:52:21.072Z,84.12
2023-02-25T01:54:51.695Z,83.28
2023-02-25T01:57:19.531Z,84.04
2023-02-25T01:59:48.274Z,82.80
2023-02-25T02:02:19.810Z,84.25
2023-02-25T02:04:50.194Z,85.25
2023-02-25T02:07:17.775Z,85.28
2023-02-25T02:09:56.871Z,85.41
2023-02-25T02:12:31.426Z,84.48
2023-02-25T02:15:00.207Z,83.91
2023-02-25T02:17:32.956Z,84.51
2023-02-25T02:20:13.139Z,84.25
2023-02-25T02:23:03.772Z,84.11
2023-02-25T02:25:45.315Z,84.14
2023-02-25T02:28:26.946Z,83.66
2023-02-25T02:31:18.047Z,82.81
2023-02-25T02:33:51.721Z,83.50
2023-02-25T02:36:35.221Z,83.16
2023-02-25T02:39:19.034Z,83.19
2023-02-25T02:41:55.135Z,82.82
2023-02-25T02:45:01.101Z,81.93
2023-02-25T02:47:50.215Z,83.41
2023-02-25T02:50:20.854Z,84.62
2023-02-25T02:52:53.213Z,85.27
2023-02-25T02:55:23.847Z,84.79
2023-02-25T02:57:54.629Z,84.15
2023-02-25T03:00:26.065Z,83.52
2023-02-25T03:02:59.254Z,83.36
2023-02-25T03:05:30.799Z,83.27
2023-02-25T03:08:18.720Z,83.36
2023-02-25T03:10:45.126Z,82.74
2023-02-25T03:13:12.182Z,84.04
2023-02-25T03:15:40.739Z,83.43
2023-02-25T03:18:18.378Z,82.95
2023-02-25T03:20:49.404Z,82.95
2023-02-25T03:23:31.425Z,82.40
2023-02-25T03:26:22.912Z,82.75
2023-02-25T03:28:50.286Z,81.82
2023-02-25T03:31:24.485Z,81.88
2023-02-25T03:34:03.262Z,82.19
2023-02-25T03:36:53.421Z,81.60
2023-02-25T03:39:27.186Z,82.00
2023-02-25T03:41:57.699Z,81.36
2023-02-25T03:44:30.297Z,80.85
2023-02-25T03:46:58.311Z,80.29
2023-02-25T03:49:33.161Z,80.61
2023-02-25T03:52:04.626Z,80.76
2023-02-25T03:54:31.028Z,79.62
2023-02-25T03:56:57.439Z,80.47
2023-02-25T03:59:26.600Z,80.18
2023-02-25T04:01:55.461Z,80.04
2023-02-25T04:04:21.935Z,79.32
2023-02-25T04:06:48.435Z,79.36
2023-02-25T04:09:14.879Z,79.32
2023-02-25T04:11:41.370Z,80.20
2023-02-25T04:14:07.849Z,80.19
2023-02-25T04:16:34.512Z,80.04
2023-02-25T04:19:01.460Z,79.83
2023-02-25T04:21:37.299Z,80.10
2023-02-25T04:24:05.596Z,79.76
2023-02-25T04:26:33.097Z,80.06
2023-02-25T04:28:59.841Z,79.27
2023-02-25T04:31:26.522Z,79.58
2023-02-25T04:33:53.240Z,79.41
2023-02-25T04:36:31.750Z,80.17
2023-02-25T04:39:01.461Z,79.95
2023-02-25T04:41:33.014Z,79.95
2023-02-25T04:44:00.229Z,80.53
2023-02-25T04:46:26.864Z,79.49
2023-02-25T04:48:53.400Z,80.95
2023-02-25T04:51:21.083Z,81.17
2023-02-25T04:53:48.031Z,80.30
2023-02-25T04:56:14.855Z,81.21
2023-02-25T04:58:41.450Z,81.23
2023-02-25T05:01:10.551Z,81.18
2023-02-25T05:03:37.809Z,81.02
2023-02-25T05:06:05.370Z,80.93
2023-02-25T05:08:32.389Z,80.95
2023-02-25T05:10:59.437Z,81.08
2023-02-25T05:13:26.910Z,80.72
2023-02-25T05:15:53.501Z,79.86
2023-02-25T05:18:19.964Z,80.13
2023-02-25T05:20:47.485Z,80.32
2023-02-25T05:23:14.684Z,80.20
2023-02-25T05:25:41.268Z,79.91
2023-02-25T05:28:11.904Z,79.95
2023-02-25T05:30:39.951Z,79.49
2023-02-25T05:33:06.957Z,79.79
2023-02-25T05:35:34.422Z,78.74
2023-02-25T05:38:00.955Z,79.27
2023-02-25T05:40:28.019Z,78.98
2023-02-25T05:42:54.405Z,78.11
2023-02-25T05:45:21.288Z,78.20
2023-02-25T05:47:47.905Z,77.32
2023-02-25T05:50:14.675Z,78.66
2023-02-25T05:52:41.131Z,77.97
2023-02-25T05:55:09.730Z,77.88
2023-02-25T05:57:36.755Z,77.25
2023-02-25T06:00:09.584Z,78.32
2023-02-25T06:02:36.949Z,77.50
2023-02-25T06:05:03.741Z,78.07
2023-02-25T06:07:31.788Z,77.44
2023-02-25T06:10:00.764Z,77.71
2023-02-25T06:12:32.270Z,78.03
2023-02-25T06:14:59.559Z,77.71
2023-02-25T06:17:26.137Z,77.03
2023-02-25T06:19:53.488Z,77.53
2023-02-25T06:22:21.245Z,77.25
2023-02-25T06:24:47.840Z,77.24
2023-02-25T06:27:15.180Z,76.83
2023-02-25T06:29:42.085Z,76.74
2023-02-25T06:32:10.559Z,76.56
2023-02-25T06:34:38.572Z,76.60
2023-02-25T06:37:05.732Z,75.48
2023-02-25T06:39:32.698Z,76.33
2023-02-25T06:41:59.355Z,76.05
2023-02-25T06:44:27.143Z,75.78
2023-02-25T06:46:56.351Z,76.11
2023-02-25T06:49:24.208Z,76.59
2023-02-25T06:51:50.825Z,76.24
2023-02-25T06:54:17.953Z,76.68
2023-02-25T06:56:45.367Z,76.13
2023-02-25T06:59:11.782Z,76.50
2023-02-25T07:01:38.442Z,76.47
2023-02-25T07:04:05.103Z,76.94
2023-02-25T07:06:31.787Z,77.06
2023-02-25T07:08:58.274Z,76.60
2023-02-25T07:11:24.901Z,77.14
2023-02-25T07:13:51.805Z,75.49
2023-02-25T07:16:18.789Z,76.61
2023-02-25T07:18:45.580Z,75.95
2023-02-25T07:21:13.599Z,76.33
2023-02-25T07:23:41.058Z,76.06
2023-02-25T07:26:09.981Z,75.59
2023-02-25T07:28:36.796Z,75.74
2023-02-25T07:31:10.070Z,76.40
2023-02-25T07:33:36.553Z,75.74
2023-02-25T07:36:03.134Z,76.31
2023-02-25T07:38:29.521Z,76.68
2023-02-25T07:40:56.545Z,76.15
2023-02-25T07:43:22.984Z,75.92
2023-02-25T07:45:50.015Z,75.15
2023-02-25T07:48:16.499Z,75.80
2023-02-25T07:50:44.691Z,75.42
2023-02-25T07:53:11.197Z,75.35
2023-02-25T07:55:37.917Z,75.70
2023-02-25T07:58:06.898Z,75.69
2023-02-25T08:00:34.134Z,75.24
2023-02-25T08:03:00.735Z,75.37
2023-02-25T08:05:27.381Z,74.56
2023-02-25T08:07:53.744Z,74.21
2023-02-25T08:10:21.074Z,74.72
2023-02-25T08:12:47.459Z,74.93
2023-02-25T08:15:13.877Z,74.29
2023-02-25T08:17:40.271Z,72.89
2023-02-25T08:20:08.133Z,73.68
2023-02-25T08:22:34.639Z,74.29
2023-02-25T08:25:01.054Z,74.17
2023-02-25T08:27:27.556Z,74.30
2023-02-25T08:29:53.950Z,73.89
2023-02-25T08:32:20.515Z,73.86
2023-02-25T08:34:48.807Z,74.03
2023-02-25T08:37:15.377Z,72.85
2023-02-25T08:39:41.757Z,72.71
2023-02-25T08:42:08.175Z,72.95
2023-02-25T08:44:34.752Z,73.59
2023-02-25T08:47:01.222Z,72.59
2023-02-25T08:49:27.622Z,73.05
2023-02-25T08:51:54.023Z,72.39
2023-02-25T08:54:20.479Z,72.87
2023-02-25T08:56:51.331Z,71.96
2023-02-25T08:59:17.781Z,72.96
2023-02-25T09:01:44.685Z,71.10
2023-02-25T09:04:25.465Z,72.81
2023-02-25T09:06:54.045Z,72.18
2023-02-25T09:09:21.619Z,72.29
2023-02-25T09:11:49.198Z,72.60
2023-02-25T09:14:16.130Z,72.12
2023-02-25T09:16:42.672Z,72.71
2023-02-25T09:19:10.705Z,72.42
2023-02-25T09:21:37.197Z,72.51
2023-02-25T09:24:03.777Z,72.51
2023-02-25T09:26:30.196Z,71.89
2023-02-25T09:29:00.292Z,71.32
2023-02-25T09:31:27.151Z,71.31
2023-02-25T09:33:53.928Z,71.58
2023-02-25T09:36:21.622Z,71.63
2023-02-25T09:38:49.914Z,71.75
2023-02-25T09:41:37.618Z,71.62
2023-02-25T09:44:32.396Z,72.06
2023-02-25T09:47:14.301Z,72.90
2023-02-25T09:49:48.104Z,71.88
2023-02-25T09:52:35.423Z,72.54
2023-02-25T09:55:11.096Z,72.74
2023-02-25T09:57:41.690Z,71.37
2023-02-25T10:00:20.504Z,71.20
2023-02-25T10:02:50.229Z,70.56
2023-02-25T10:05:27.825Z,70.64
2023-02-25T10:08:19.041Z,70.46
2023-02-25T10:11:01.746Z,69.06
2023-02-25T10:13:54.592Z,70.60
2023-02-25T10:16:31.057Z,69.34
2023-02-25T10:19:08.172Z,69.58
2023-02-25T10:21:49.773Z,69.51
2023-02-25T10:24:25.060Z,68.48
2023-02-25T10:26:56.545Z,68.75
2023-02-25T10:29:36.821Z,68.59
2023-02-25T10:32:17.237Z,68.89
2023-02-25T10:34:44.148Z,68.21
2023-02-25T10:37:27.110Z,68.08
2023-02-25T10:39:58.652Z,67.78
2023-02-25T10:42:26.912Z,67.61
2023-02-25T10:44:55.601Z,67.51
2023-02-25T10:47:31.618Z,66.74
2023-02-25T10:50:32.522Z,67.77
2023-02-25T10:53:14.666Z,67.28
2023-02-25T10:55:44.160Z,68.10
2023-02-25T10:58:44.309Z,68.67
2023-02-25T11:01:15.223Z,68.98
2023-02-25T11:03:48.229Z,68.12
2023-02-25T11:06:26.081Z,67.01
2023-02-25T11:08:54.801Z,67.76
2023-02-25T11:11:24.479Z,68.74
2023-02-25T11:14:05.312Z,68.13
2023-02-25T11:16:36.216Z,67.34
2023-02-25T11:19:13.558Z,67.04
2023-02-25T11:21:40.456Z,68.28
2023-02-25T11:24:17.239Z,67.36
2023-02-25T11:26:47.011Z,67.05
2023-02-25T11:29:22.064Z,66.11
2023-02-25T11:31:55.831Z,65.90
2023-02-25T11:34:30.737Z,65.35
2023-02-25T11:37:18.957Z,66.89
2023-02-25T11:39:54.826Z,65.87
2023-02-25T11:42:26.341Z,66.40
2023-02-25T11:45:04.328Z,66.63
2023-02-25T11:47:38.292Z,66.30
2023-02-25T11:50:08.196Z,66.92
2023-02-25T11:52:43.407Z,67.77
2023-02-25T11:55:26.049Z,68.39
2023-02-25T11:58:14.744Z,68.06
2023-02-25T12:00:56.970Z,68.47
2023-02-25T12:03:54.739Z,68.24
2023-02-25T12:06:47.129Z,68.19
2023-02-25T12:09:25.460Z,68.20
2023-02-25T12:12:01.328Z,68.35
2023-02-25T12:14:46.019Z,68.42
2023-02-25T12:17:43.117Z,68.24
2023-02-25T12:20:51.057Z,67.62
2023-02-25T12:23:33.450Z,67.64
2023-02-25T12:26:12.435Z,67.25
2023-02-25T12:29:17.871Z,68.22
2023-02-25T12:32:06.115Z,69.52
2023-02-25T12:34:35.561Z,69.48
2023-02-25T12:37:23.253Z,69.46
2023-02-25T12:39:50.595Z,69.26
2023-02-25T12:42:25.882Z,68.76
2023-02-25T12:45:33.914Z,68.28
2023-02-25T12:48:22.137Z,66.36
2023-02-25T12:51:00.528Z,66.28
2023-02-25T12:53:41.570Z,65.88
2023-02-25T12:56:22.510Z,65.70
2023-02-25T12:58:58.080Z,66.44
2023-02-25T13:01:24.875Z,66.14
2023-02-25T13:04:07.306Z,63.32
2023-02-25T13:06:59.025Z,64.33
2023-02-25T13:09:43.071Z,66.32
2023-02-25T13:12:33.566Z,70.74
2023-02-25T13:15:12.106Z,74.75
2023-02-25T13:18:08.974Z,75.55
2023-02-25T13:21:15.120Z,76.26
2023-02-25T13:24:05.845Z,77.92
2023-02-25T13:26:57.236Z,77.25
2023-02-25T13:29:48.561Z,76.91
2023-02-25T13:32:37.635Z,78.64
2023-02-25T13:35:18.528Z,81.42
2023-02-25T13:38:33.081Z,83.55
2023-02-25T13:41:05.306Z,87.11
2023-02-25T13:43:51.726Z,86.82
2023-02-25T13:46:37.684Z,85.13
2023-02-25T13:49:25.071Z,85.70
2023-02-25T13:51:57.427Z,84.97
2023-02-25T13:54:48.630Z,89.38
2023-02-25T13:57:18.027Z,90.06
2023-02-25T14:00:16.370Z,89.03
2023-02-25T14:02:54.953Z,89.95
2023-02-25T14:05:58.696Z,90.63
2023-02-25T14:08:47.012Z,91.69
2023-02-25T14:11:28.736Z,90.60
2023-02-25T14:14:42.483Z,91.73
2023-02-25T14:17:27.355Z,91.66
2023-02-25T14:20:02.854Z,91.74
2023-02-25T14:22:36.786Z,90.69
2023-02-25T14:25:20.393Z,90.43
2023-02-25T14:28:15.221Z,88.53
2023-02-25T14:30:50.934Z,89.23
2023-02-25T14:33:29.434Z,89.91
2023-02-25T14:36:10.011Z,89.92
2023-02-25T14:39:13.867Z,90.02
2023-02-25T14:42:15.413Z,92.48
2023-02-25T14:44:41.729Z,95.66
2023-02-25T14:47:28.305Z,95.32
2023-02-25T14:49:59.204Z,97.97
2023-02-25T14:52:28.665Z,99.08
2023-02-25T14:55:07.075Z,98.09
2023-02-25T14:58:12.672Z,100.00
2023-02-25T15:00:52.921Z,100.00
2023-02-25T15:03:43.451Z,100.00
2023-02-25T15:06:23.062Z,100.00
2023-02-25T15:08:55.768Z,100.00
2023-02-25T15:11:41.472Z,100.00
2023-02-25T15:14:29.293Z,100.00
2023-02-25T15:17:33.417Z,100.00
2023-02-25T15:20:27.210Z,100.00
2023-02-25T15:23:12.578Z,100.00
2023-02-25T15:25:45.203Z,100.00
2023-02-25T15:28:29.880Z,100.00
2023-02-25T15:30:59.450Z,100.00
2023-02-25T15:33:44.238Z,100.00
2023-02-25T15:36:14.376Z,100.00
2023-02-25T15:38:48.121Z,100.00
2023-02-25T15:41:26.488Z,100.00
2023-02-25T15:44:03.016Z,99.71
2023-02-25T15:46:35.638Z,99.06
2023-02-25T15:49:07.824Z,98.66
2023-02-25T15:51:43.887Z,98.27
2023-02-25T15:54:12.173Z,99.74
2023-02-25T15:56:50.529Z,100.00
2023-02-25T15:59:57.483Z,99.34
2023-02-25T16:02:27.174Z,98.80
2023-02-25T16:05:14.709Z,99.54
2023-02-25T16:07:46.800Z,99.73
2023-02-25T16:10:19.057Z,99.39
2023-02-25T16:12:52.094Z,99.37
2023-02-25T16:15:32.943Z,99.69
2023-02-25T16:18:16.582Z,98.36
2023-02-25T16:20:47.327Z,97.72
2023-02-25T16:23:15.243Z,98.04
2023-02-25T16:26:08.022Z,96.73
2023-02-25T16:29:04.316Z,95.56
2023-02-25T16:31:39.438Z,96.91
2023-02-25T16:34:13.122Z,96.25
2023-02-25T16:36:42.603Z,95.35
2023-02-25T16:39:21.551Z,96.75
2023-02-25T16:41:48.310Z,96.17
2023-02-25T16:44:38.913Z,92.58
2023-02-25T16:47:28.624Z,94.50
2023-02-25T16:49:57.629Z,95.77
2023-02-25T16:52:30.394Z,94.85
2023-02-25T16:55:00.565Z,95.00
2023-02-25T16:57:27.476Z,94.81
2023-02-25T17:00:20.140Z,89.89
2023-02-25T17:02:52.561Z,92.03
2023-02-25T17:05:37.958Z,91.65
2023-02-25T17:08:14.382Z,90.71
2023-02-25T17:10:48.157Z,91.69
2023-02-25T17:13:23.526Z,90.76
2023-02-25T17:15:51.408Z,90.54
2023-02-25T17:18:27.135Z,90.65
2023-02-25T17:21:16.756Z,91.34
2023-02-25T17:23:44.634Z,91.33
2023-02-25T17:26:15.782Z,91.49
2023-02-25T17:28:45.951Z,91.77
2023-02-25T17:31:18.551Z,92.76
2023-02-25T17:33:50.988Z,93.32
2023-02-25T17:36:24.455Z,91.96
2023-02-25T17:38:56.253Z,93.13
2023-02-25T17:41:24.126Z,93.12
2023-02-25T17:43:51.877Z,94.18
2023-02-25T17:46:42.200Z,93.45
2023-02-25T17:49:21.900Z,93.71
2023-02-25T17:51:54.119Z,92.83
2023-02-25T17:54:24.249Z,92.77
2023-02-25T17:56:59.152Z,92.64
2023-02-25T17:59:35.740Z,93.96
2023-02-25T18:02:04.363Z,93.92
2023-02-25T18:04:41.512Z,94.21
2023-02-25T18:07:29.719Z,94.41
2023-02-25T18:09:57.281Z,92.95
2023-02-25T18:12:29.985Z,92.46
2023-02-25T18:15:24.139Z,93.82
2023-02-25T18:17:54.340Z,93.05
2023-02-25T18:20:31.381Z,93.67
2023-02-25T18:23:02.797Z,93.75
2023-02-25T18:25:38.432Z,92.63
2023-02-25T18:28:12.261Z,94.13
2023-02-25T18:30:38.783Z,94.04
2023-02-25T18:33:05.292Z,92.80
2023-02-25T18:35:32.890Z,91.97
2023-02-25T18:38:00.782Z,92.43
2023-02-25T18:40:32.797Z,93.11
2023-02-25T18:42:59.905Z,92.80
2023-02-25T18:45:28.677Z,93.13
2023-02-25T18:48:00.402Z,93.23
2023-02-25T18:50:30.433Z,92.46
2023-02-25T18:52:57.238Z,90.83
2023-02-25T18:55:30.233Z,88.72
2023-02-25T18:57:57.528Z,87.91
2023-02-25T19:00:27.359Z,87.72
2023-02-25T19:02:56.817Z,90.04
2023-02-25T19:05:25.151Z,89.98
2023-02-25T19:07:51.896Z,91.10
2023-02-25T19:10:21.564Z,92.57
2023-02-25T19:12:49.596Z,93.71
2023-02-25T19:15:18.779Z,94.88
2023-02-25T19:17:46.196Z,95.18
2023-02-25T19:20:17.699Z,95.08
2023-02-25T19:22:46.621Z,93.22
2023-02-25T19:25:28.412Z,88.46
2023-02-25T19:27:56.699Z,86.27
2023-02-25T19:30:30.799Z,86.88
2023-02-25T19:33:02.893Z,87.74
2023-02-25T19:35:33.483Z,89.11
2023-02-25T19:38:00.251Z,88.43
2023-02-25T19:40:27.836Z,89.29
2023-02-25T19:42:54.278Z,90.35
2023-02-25T19:45:22.325Z,90.65
2023-02-25T19:47:49.904Z,91.23
2023-02-25T19:50:19.173Z,90.39
2023-02-25T19:52:45.782Z,91.28
2023-02-25T19:55:13.446Z,91.72
2023-02-25T19:57:41.042Z,91.28
2023-02-25T20:00:13.952Z,90.67
2023-02-25T20:02:40.872Z,92.48
2023-02-25T20:05:08.664Z,92.67
2023-02-25T20:07:35.630Z,93.97
2023-02-25T20:10:02.290Z,94.12
2023-02-25T20:12:28.666Z,93.55
2023-02-25T20:14:55.077Z,93.07
2023-02-25T20:17:21.477Z,92.12
2023-02-25T20:19:48.117Z,93.73
2023-02-25T20:22:14.641Z,92.91
2023-02-25T20:24:41.501Z,91.71
2023-02-25T20:27:07.915Z,90.80
2023-02-25T20:29:34.376Z,90.44
2023-02-25T20:32:00.899Z,90.42
2023-02-25T20:34:28.074Z,90.28
2023-02-25T20:37:22.081Z,90.42
2023-02-25T20:39:53.918Z,91.42
2023-02-25T20:42:30.463Z,90.27
2023-02-25T20:44:58.521Z,90.56
2023-02-25T20:47:30.360Z,89.79
2023-02-25T20:49:58.485Z,89.72
2023-02-25T20:52:28.787Z,89.59
2023-02-25T20:54:55.342Z,88.93
2023-02-25T20:57:23.951Z,90.46
2023-02-25T20:59:50.928Z,90.91
2023-02-25T21:02:18.198Z,92.33
2023-02-25T21:04:45.336Z,92.07
2023-02-25T21:07:11.868Z,92.18
2023-02-25T21:09:38.546Z,91.72
2023-02-25T21:12:06.077Z,91.47
2023-02-25T21:14:32.617Z,91.84
2023-02-25T21:16:59.061Z,91.51
2023-02-25T21:19:28.093Z,90.72
2023-02-25T21:21:55.467Z,90.35
2023-02-25T21:24:22.621Z,91.48
2023-02-25T21:26:49.376Z,90.53
2023-02-25T21:29:15.961Z,91.29
2023-02-25T21:31:43.377Z,89.91
2023-02-25T21:34:12.965Z,91.13
2023-02-25T21:36:40.491Z,90.58
2023-02-25T21:39:09.163Z,90.44
2023-02-25T21:41:38.381Z,90.56
2023-02-25T21:44:05.160Z,90.11
2023-02-25T21:46:31.660Z,89.46
2023-02-25T21:48:58.161Z,89.15
2023-02-25T21:51:26.249Z,88.16
2023-02-25T21:53:57.021Z,89.44
2023-02-25T21:56:24.559Z,88.54
2023-02-25T21:58:56.175Z,89.46
2023-02-25T22:01:28.557Z,90.40
2023-02-25T22:03:55.337Z,90.08
2023-02-25T22:06:25.901Z,89.46
2023-02-25T22:08:54.194Z,89.03
2023-02-25T22:11:26.933Z,88.25
2023-02-25T22:13:53.886Z,88.73
2023-02-25T22:16:21.325Z,88.50
2023-02-25T22:18:47.799Z,88.92
2023-02-25T22:21:17.178Z,88.54
2023-02-25T22:23:44.077Z,88.09
2023-02-25T22:26:13.624Z,88.84
2023-02-25T22:28:41.570Z,87.65
2023-02-25T22:31:13.603Z,88.97
2023-02-25T22:33:40.622Z,89.76
2023-02-25T22:36:07.797Z,89.75
2023-02-25T22:38:40.395Z,89.22
2023-02-25T22:41:12.565Z,87.56
2023-02-25T22:43:38.984Z,87.00
2023-02-25T22:46:11.956Z,88.88
2023-02-25T22:48:40.988Z,88.33
2023-02-25T22:51:11.300Z,88.65
2023-02-25T22:53:39.873Z,89.70
2023-02-25T22:56:09.230Z,91.21
2023-02-25T22:58:39.035Z,90.26
2023-02-25T23:01:06.098Z,89.42
2023-02-25T23:03:32.550Z,87.19
2023-02-25T23:05:58.961Z,85.83
2023-02-25T23:08:25.784Z,83.58
2023-02-25T23:10:52.961Z,84.01
2023-02-25T23:13:19.897Z,81.80
2023-02-25T23:15:47.726Z,81.84
2023-02-25T23:18:16.050Z,80.79
2023-02-25T23:20:43.045Z,80.87
2023-02-25T23:23:09.612Z,79.12
2023-02-25T23:25:39.981Z,79.30
2023-02-25T23:28:08.204Z,79.59
2023-02-25T23:30:37.561Z,78.62
2023-02-25T23:33:04.127Z,79.49
2023-02-25T23:35:30.774Z,78.75
2023-02-25T23:37:57.158Z,78.49
2023-02-25T23:40:23.717Z,79.23
2023-02-25T23:42:50.167Z,78.29
2023-02-25T23:45:17.115Z,78.56
2023-02-25T23:47:43.718Z,78.56
2023-02-25T23:50:13.098Z,77.75
2023-02-25T23:52:39.853Z,77.72
2023-02-25T23:55:06.583Z,77.10
2023-02-25T23:57:33.698Z,77.97
